createdAt,value
2017-03-30T00:00:08.472Z,0
2017-03-30T00:00:48.941Z,0
2017-03-30T00:01:29.455Z,0
2017-03-30T00:02:09.960Z,0
2017-03-30T00:02:50.403Z,0
2017-03-30T00:03:30.911Z,0
2017-03-30T00:04:11.417Z,0
2017-03-30T00:04:51.872Z,0
2017-03-30T00:05:32.349Z,0
2017-03-30T00:06:12.865Z,0
2017-03-30T00:06:53.330Z,0
2017-03-30T00:07:33.844Z,0
2017-03-30T00:08:14.352Z,0
2017-03-30T00:08:54.792Z,0
2017-03-30T00:09:35.270Z,0
2017-03-30T00:10:15.765Z,0
2017-03-30T00:10:56.245Z,0
2017-03-30T00:11:36.730Z,0
2017-03-30T00:12:17.184Z,0
2017-03-30T00:12:57.746Z,0
2017-03-30T00:13:38.187Z,0
2017-03-30T00:14:18.715Z,0
2017-03-30T00:14:59.221Z,0
2017-03-30T00:15:39.713Z,0
2017-03-30T00:16:20.185Z,0
2017-03-30T00:17:00.695Z,0
2017-03-30T00:17:41.183Z,0
2017-03-30T00:18:21.671Z,0
2017-03-30T00:19:02.134Z,0
2017-03-30T00:19:42.608Z,0
2017-03-30T00:20:23.086Z,0
2017-03-30T00:21:03.539Z,0
2017-03-30T00:21:44.035Z,0
2017-03-30T00:22:24.562Z,0
2017-03-30T00:23:05.045Z,0
2017-03-30T00:23:45.557Z,0
2017-03-30T00:24:26.014Z,0
2017-03-30T00:25:06.493Z,0
2017-03-30T00:25:46.963Z,0
2017-03-30T00:26:27.448Z,0
2017-03-30T00:27:07.930Z,0
2017-03-30T00:27:48.406Z,0
2017-03-30T00:28:28.951Z,0
2017-03-30T00:29:09.421Z,0
2017-03-30T00:29:49.904Z,0
2017-03-30T00:30:30.373Z,0
2017-03-30T00:31:10.844Z,0
2017-03-30T00:31:51.366Z,0
2017-03-30T00:32:31.827Z,0
2017-03-30T00:33:12.289Z,0
2017-03-30T00:33:52.763Z,0
2017-03-30T00:34:33.232Z,0
2017-03-30T00:35:13.819Z,0
2017-03-30T00:35:54.267Z,0
2017-03-30T00:36:34.744Z,0
2017-03-30T00:37:15.239Z,0
2017-03-30T00:37:55.739Z,0
2017-03-30T00:38:36.234Z,0
2017-03-30T00:39:16.719Z,0
2017-03-30T00:39:57.206Z,0
2017-03-30T00:40:37.711Z,0
2017-03-30T00:41:18.211Z,0
2017-03-30T00:41:58.706Z,0
2017-03-30T00:42:39.211Z,0
2017-03-30T00:43:19.704Z,0
2017-03-30T00:44:00.166Z,0
2017-03-30T00:44:40.671Z,0
2017-03-30T00:45:21.169Z,0
2017-03-30T00:46:01.644Z,0
2017-03-30T00:46:42.179Z,0
2017-03-30T00:47:22.641Z,0
2017-03-30T00:48:03.127Z,0
2017-03-30T00:48:43.633Z,0
2017-03-30T00:49:24.096Z,0
2017-03-30T00:50:04.584Z,0
2017-03-30T00:50:45.091Z,0
2017-03-30T00:51:25.531Z,0
2017-03-30T00:52:06.019Z,0
2017-03-30T00:52:46.509Z,0
2017-03-30T00:53:27.003Z,0
2017-03-30T00:54:07.499Z,0
2017-03-30T00:54:47.960Z,0
2017-03-30T00:55:28.469Z,0
2017-03-30T00:56:08.970Z,0
2017-03-30T00:56:49.446Z,0
2017-03-30T00:57:29.959Z,0
2017-03-30T00:58:10.456Z,0
2017-03-30T00:58:51.007Z,0
2017-03-30T00:59:31.495Z,0
2017-03-30T01:00:11.987Z,0
2017-03-30T01:00:52.477Z,0
2017-03-30T01:01:32.982Z,0
2017-03-30T01:02:13.487Z,0
2017-03-30T01:02:53.963Z,0
2017-03-30T01:03:34.429Z,0
2017-03-30T01:05:52.352Z,0
2017-03-30T01:06:32.858Z,0
2017-03-30T01:07:13.323Z,0
2017-03-30T01:07:53.813Z,0
2017-03-30T01:08:34.314Z,0
2017-03-30T01:09:14.763Z,0
2017-03-30T01:09:56.227Z,0
2017-03-30T01:10:36.718Z,0
2017-03-30T01:11:17.182Z,0
2017-03-30T01:11:57.680Z,0
2017-03-30T01:12:38.142Z,0
2017-03-30T01:13:18.621Z,0
2017-03-30T01:13:59.115Z,0
2017-03-30T01:14:39.596Z,0
2017-03-30T01:15:20.079Z,0
2017-03-30T01:16:00.563Z,0
2017-03-30T01:16:41.060Z,0
2017-03-30T01:17:21.558Z,0
2017-03-30T01:18:02.033Z,0
2017-03-30T01:18:42.493Z,0
2017-03-30T01:19:22.979Z,0
2017-03-30T01:20:03.454Z,0
2017-03-30T01:20:43.935Z,0
2017-03-30T01:21:24.437Z,0
2017-03-30T01:22:05.017Z,0
2017-03-30T01:22:45.518Z,0
2017-03-30T01:23:25.951Z,0
2017-03-30T01:24:06.427Z,0
2017-03-30T01:24:46.917Z,0
2017-03-30T01:25:27.420Z,0
2017-03-30T01:26:07.948Z,0
2017-03-30T01:26:48.407Z,0
2017-03-30T01:27:28.945Z,0
2017-03-30T01:28:09.390Z,0
2017-03-30T01:28:49.868Z,0
2017-03-30T01:29:30.339Z,0
2017-03-30T01:30:10.879Z,0
2017-03-30T01:30:51.369Z,0
2017-03-30T01:31:31.848Z,0
2017-03-30T01:32:12.361Z,0
2017-03-30T01:32:52.863Z,0
2017-03-30T01:33:33.325Z,0
2017-03-30T01:34:13.876Z,0
2017-03-30T01:34:54.319Z,0
2017-03-30T01:35:34.782Z,0
2017-03-30T01:36:15.249Z,0
2017-03-30T01:36:55.736Z,0
2017-03-30T01:37:36.240Z,0
2017-03-30T01:38:16.696Z,0
2017-03-30T01:38:57.184Z,0
2017-03-30T01:39:37.644Z,0
2017-03-30T01:40:18.130Z,0
2017-03-30T01:40:58.593Z,0
2017-03-30T01:41:39.096Z,0
2017-03-30T01:42:19.580Z,0
2017-03-30T01:43:00.284Z,0
2017-03-30T01:43:40.734Z,0
2017-03-30T01:44:21.209Z,0
2017-03-30T01:45:01.685Z,0
2017-03-30T01:45:42.155Z,0
2017-03-30T01:46:22.634Z,0
2017-03-30T01:47:03.161Z,0
2017-03-30T01:47:43.642Z,0
2017-03-30T01:48:24.102Z,0
2017-03-30T01:49:04.575Z,0
2017-03-30T01:49:45.064Z,0
2017-03-30T01:50:25.543Z,0
2017-03-30T01:51:06.012Z,0
2017-03-30T01:51:46.488Z,0
2017-03-30T01:52:26.928Z,0
2017-03-30T01:53:07.435Z,0
2017-03-30T01:53:47.891Z,0
2017-03-30T01:54:28.385Z,0
2017-03-30T01:55:09.140Z,0
2017-03-30T01:55:49.602Z,0
2017-03-30T01:56:30.073Z,0
2017-03-30T01:57:10.543Z,0
2017-03-30T01:57:51.033Z,0
2017-03-30T01:58:31.525Z,0
2017-03-30T01:59:12.005Z,0
2017-03-30T01:59:52.480Z,0
2017-03-30T02:00:32.984Z,0
2017-03-30T02:01:13.423Z,0
2017-03-30T02:01:53.908Z,0
2017-03-30T02:02:34.391Z,0
2017-03-30T02:03:14.925Z,0
2017-03-30T02:03:55.417Z,0
2017-03-30T02:04:35.874Z,0
2017-03-30T02:05:16.465Z,0
2017-03-30T02:05:56.965Z,0
2017-03-30T02:06:37.471Z,0
2017-03-30T02:07:17.960Z,0
2017-03-30T02:07:58.424Z,0
2017-03-30T02:08:38.924Z,0
2017-03-30T02:09:19.382Z,0
2017-03-30T02:09:59.908Z,0
2017-03-30T02:10:40.394Z,0
2017-03-30T02:11:20.880Z,0
2017-03-30T02:12:01.357Z,0
2017-03-30T02:12:41.830Z,0
2017-03-30T02:13:22.296Z,0
2017-03-30T02:14:02.794Z,0
2017-03-30T02:14:43.259Z,0
2017-03-30T02:15:23.747Z,0
2017-03-30T02:16:04.319Z,0
2017-03-30T02:16:44.794Z,0
2017-03-30T02:17:25.309Z,0
2017-03-30T02:18:05.793Z,0
2017-03-30T02:20:20.028Z,0
2017-03-30T02:21:00.482Z,0
2017-03-30T02:21:40.927Z,0
2017-03-30T02:22:21.455Z,0
2017-03-30T02:23:01.930Z,0
2017-03-30T02:23:42.444Z,0
2017-03-30T02:24:22.902Z,0
2017-03-30T02:25:03.388Z,0
2017-03-30T02:25:43.947Z,0
2017-03-30T02:26:24.414Z,0
2017-03-30T02:27:04.883Z,0
2017-03-30T02:27:45.355Z,0
2017-03-30T02:28:25.879Z,0
2017-03-30T02:29:06.325Z,0
2017-03-30T02:29:46.835Z,0
2017-03-30T02:30:27.288Z,0
2017-03-30T02:31:07.767Z,0
2017-03-30T02:31:48.220Z,0
2017-03-30T02:32:28.705Z,0
2017-03-30T02:33:09.196Z,0
2017-03-30T02:33:49.706Z,0
2017-03-30T02:34:30.192Z,0
2017-03-30T02:35:10.658Z,0
2017-03-30T02:35:51.125Z,0
2017-03-30T02:36:31.655Z,0
2017-03-30T02:37:12.119Z,0
2017-03-30T02:37:52.624Z,0
2017-03-30T02:38:33.107Z,0
2017-03-30T02:39:13.563Z,0
2017-03-30T02:39:54.066Z,0
2017-03-30T02:40:34.554Z,0
2017-03-30T02:41:15.058Z,0
2017-03-30T02:41:55.568Z,0
2017-03-30T02:42:36.044Z,0
2017-03-30T02:43:16.512Z,0
2017-03-30T02:43:57.008Z,0
2017-03-30T02:44:37.534Z,0
2017-03-30T02:45:17.987Z,0
2017-03-30T02:45:58.468Z,0
2017-03-30T02:46:38.958Z,0
2017-03-30T02:47:19.434Z,0
2017-03-30T02:47:59.908Z,0
2017-03-30T02:48:40.391Z,0
2017-03-30T02:49:20.878Z,0
2017-03-30T02:50:01.319Z,0
2017-03-30T02:50:41.814Z,0
2017-03-30T02:51:22.299Z,0
2017-03-30T02:52:02.792Z,0
2017-03-30T02:52:43.267Z,0
2017-03-30T02:53:23.769Z,0
2017-03-30T02:54:04.309Z,0
2017-03-30T02:54:44.792Z,0
2017-03-30T02:55:25.283Z,0
2017-03-30T02:56:05.782Z,0
2017-03-30T02:56:46.286Z,0
2017-03-30T02:57:26.763Z,0
2017-03-30T02:58:07.257Z,0
2017-03-30T02:58:47.725Z,0
2017-03-30T02:59:28.196Z,0
2017-03-30T03:00:08.680Z,0
2017-03-30T03:00:49.179Z,0
2017-03-30T03:01:29.660Z,0
2017-03-30T03:02:10.152Z,0
2017-03-30T03:02:50.644Z,0
2017-03-30T03:03:31.145Z,0
2017-03-30T03:04:11.633Z,0
2017-03-30T03:04:52.123Z,0
2017-03-30T03:05:32.587Z,0
2017-03-30T03:06:13.100Z,0
2017-03-30T03:06:53.556Z,0
2017-03-30T03:07:34.045Z,0
2017-03-30T03:08:14.495Z,0
2017-03-30T03:08:54.965Z,0
2017-03-30T03:09:35.485Z,0
2017-03-30T03:10:15.984Z,0
2017-03-30T03:10:56.442Z,0
2017-03-30T03:11:36.921Z,0
2017-03-30T03:12:17.449Z,0
2017-03-30T03:12:57.936Z,0
2017-03-30T03:13:38.383Z,0
2017-03-30T03:14:18.921Z,0
2017-03-30T03:14:59.377Z,0
2017-03-30T03:15:39.863Z,0
2017-03-30T03:16:20.356Z,0
2017-03-30T03:17:00.826Z,0
2017-03-30T03:17:41.310Z,0
2017-03-30T03:18:23.732Z,0
2017-03-30T03:19:04.200Z,0
2017-03-30T03:19:44.683Z,0
2017-03-30T03:20:25.150Z,0
2017-03-30T03:21:05.637Z,0
2017-03-30T03:21:46.085Z,0
2017-03-30T03:22:26.578Z,0
2017-03-30T03:23:07.011Z,0
2017-03-30T03:23:47.498Z,0
2017-03-30T03:24:27.986Z,0
2017-03-30T03:25:08.488Z,0
2017-03-30T03:25:48.938Z,0
2017-03-30T03:26:29.423Z,0
2017-03-30T03:27:09.906Z,0
2017-03-30T03:27:50.360Z,0
2017-03-30T03:28:30.854Z,0
2017-03-30T03:29:11.346Z,0
2017-03-30T03:29:51.825Z,0
2017-03-30T03:30:32.307Z,0
2017-03-30T03:31:12.800Z,0
2017-03-30T03:31:53.298Z,0
2017-03-30T03:32:33.777Z,0
2017-03-30T03:33:14.242Z,0
2017-03-30T03:33:54.716Z,0
2017-03-30T03:34:35.225Z,0
2017-03-30T03:35:15.690Z,0
2017-03-30T03:35:56.189Z,0
2017-03-30T03:36:36.678Z,0
2017-03-30T03:37:17.169Z,0
2017-03-30T03:37:57.683Z,0
2017-03-30T03:38:38.133Z,0
2017-03-30T03:39:18.640Z,0
2017-03-30T03:39:59.183Z,0
2017-03-30T03:40:39.656Z,0
2017-03-30T03:41:20.134Z,0
2017-03-30T03:42:00.624Z,0
2017-03-30T03:42:41.084Z,0
2017-03-30T03:43:21.593Z,0
2017-03-30T03:44:02.075Z,0
2017-03-30T03:44:42.553Z,0
2017-03-30T03:45:23.075Z,0
2017-03-30T03:46:03.527Z,0
2017-03-30T03:46:44.071Z,0
2017-03-30T03:47:24.509Z,0
2017-03-30T03:48:04.997Z,0
2017-03-30T03:48:45.483Z,0
2017-03-30T03:49:25.964Z,0
2017-03-30T03:50:06.412Z,0
2017-03-30T03:50:46.898Z,0
2017-03-30T03:51:27.385Z,0
2017-03-30T03:52:07.875Z,0
2017-03-30T03:52:48.359Z,0
2017-03-30T03:53:28.844Z,0
2017-03-30T03:54:09.314Z,0
2017-03-30T03:54:49.833Z,0
2017-03-30T03:55:30.315Z,0
2017-03-30T03:56:10.825Z,0
2017-03-30T03:56:51.303Z,0
2017-03-30T03:57:31.803Z,0
2017-03-30T03:58:12.265Z,0
2017-03-30T03:58:52.765Z,0
2017-03-30T03:59:33.257Z,0
2017-03-30T04:00:13.738Z,0
2017-03-30T04:00:54.236Z,0
2017-03-30T04:01:34.726Z,0
2017-03-30T04:02:15.190Z,0
2017-03-30T04:02:55.681Z,0
2017-03-30T04:03:36.163Z,0
2017-03-30T04:04:16.643Z,0
2017-03-30T04:04:57.162Z,0
2017-03-30T04:05:37.661Z,0
2017-03-30T04:06:18.163Z,0
2017-03-30T04:06:58.652Z,0
2017-03-30T04:07:39.155Z,0
2017-03-30T04:08:19.612Z,0
2017-03-30T04:09:00.077Z,0
2017-03-30T04:09:40.559Z,0
2017-03-30T04:10:21.033Z,0
2017-03-30T04:11:01.494Z,0
2017-03-30T04:11:41.993Z,0
2017-03-30T04:12:22.483Z,0
2017-03-30T04:13:03.009Z,0
2017-03-30T04:13:43.495Z,0
2017-03-30T04:14:23.984Z,0
2017-03-30T04:15:04.456Z,0
2017-03-30T04:15:44.895Z,0
2017-03-30T04:16:25.374Z,0
2017-03-30T04:17:05.884Z,0
2017-03-30T04:17:46.368Z,0
2017-03-30T04:18:26.846Z,0
2017-03-30T04:19:07.314Z,0
2017-03-30T04:19:47.801Z,0
2017-03-30T04:20:28.291Z,0
2017-03-30T04:21:08.760Z,0
2017-03-30T04:23:27.030Z,0
2017-03-30T04:24:07.486Z,0
2017-03-30T04:24:47.968Z,0
2017-03-30T04:25:28.416Z,0
2017-03-30T04:26:08.923Z,0
2017-03-30T04:26:49.489Z,0
2017-03-30T04:27:29.975Z,0
2017-03-30T04:28:10.476Z,0
2017-03-30T04:28:50.931Z,0
2017-03-30T04:29:31.411Z,0
2017-03-30T04:30:11.880Z,0
2017-03-30T04:30:52.352Z,0
2017-03-30T04:31:32.839Z,0
2017-03-30T04:32:13.304Z,0
2017-03-30T04:32:53.768Z,0
2017-03-30T04:33:34.270Z,0
2017-03-30T04:34:14.748Z,0
2017-03-30T04:34:55.194Z,0
2017-03-30T04:35:35.649Z,0
2017-03-30T04:36:16.170Z,0
2017-03-30T04:36:56.644Z,0
2017-03-30T04:37:37.126Z,0
2017-03-30T04:38:17.627Z,0
2017-03-30T04:38:58.052Z,0
2017-03-30T04:39:38.543Z,0
2017-03-30T04:40:19.021Z,0
2017-03-30T04:40:59.519Z,0
2017-03-30T04:41:40.005Z,0
2017-03-30T04:42:20.500Z,0
2017-03-30T04:43:00.977Z,0
2017-03-30T04:43:41.497Z,0
2017-03-30T04:44:21.950Z,0
2017-03-30T04:45:02.458Z,0
2017-03-30T04:45:42.927Z,0
2017-03-30T04:46:23.390Z,0
2017-03-30T04:47:03.913Z,0
2017-03-30T04:47:44.374Z,0
2017-03-30T04:48:24.876Z,0
2017-03-30T04:49:05.372Z,0
2017-03-30T04:49:45.851Z,0
2017-03-30T04:50:26.345Z,0
2017-03-30T04:51:06.830Z,0
2017-03-30T04:51:47.348Z,0
2017-03-30T04:52:27.833Z,0
2017-03-30T04:53:08.315Z,0
2017-03-30T04:53:48.794Z,0
2017-03-30T04:54:29.289Z,0
2017-03-30T04:55:09.761Z,0
2017-03-30T04:55:50.218Z,0
2017-03-30T04:56:30.691Z,0
2017-03-30T04:57:11.165Z,0
2017-03-30T04:57:51.660Z,0
2017-03-30T04:58:32.137Z,0
2017-03-30T04:59:12.641Z,0
2017-03-30T04:59:53.147Z,0
2017-03-30T05:00:33.631Z,0
2017-03-30T05:01:14.159Z,0
2017-03-30T05:01:54.640Z,0
2017-03-30T05:02:35.168Z,0
2017-03-30T05:03:15.658Z,0
2017-03-30T05:03:56.142Z,0
2017-03-30T05:04:36.636Z,0
2017-03-30T05:05:17.101Z,0
2017-03-30T05:05:57.607Z,0
2017-03-30T05:06:38.067Z,0
2017-03-30T05:07:18.543Z,0
2017-03-30T05:07:59.026Z,5
2017-03-30T05:08:39.498Z,5
2017-03-30T05:09:19.989Z,5
2017-03-30T05:10:00.471Z,5
2017-03-30T05:10:40.950Z,5
2017-03-30T05:11:21.462Z,5
2017-03-30T05:12:01.918Z,5
2017-03-30T05:14:20.318Z,5
2017-03-30T05:15:00.707Z,5
2017-03-30T05:15:41.189Z,10
2017-03-30T05:16:21.686Z,10
2017-03-30T05:17:02.125Z,10
2017-03-30T05:17:42.593Z,10
2017-03-30T05:18:23.094Z,10
2017-03-30T05:19:03.587Z,10
2017-03-30T05:19:44.068Z,15
2017-03-30T05:20:24.563Z,15
2017-03-30T05:21:05.049Z,15
2017-03-30T05:21:45.534Z,15
2017-03-30T05:22:26.092Z,15
2017-03-30T05:23:13.117Z,15
2017-03-30T05:23:53.582Z,15
2017-03-30T05:24:34.065Z,15
2017-03-30T05:25:14.573Z,20
2017-03-30T05:25:55.112Z,15
2017-03-30T05:26:35.588Z,15
2017-03-30T05:27:16.114Z,10
2017-03-30T05:27:56.609Z,10
2017-03-30T05:28:37.094Z,10
2017-03-30T05:29:17.581Z,5
2017-03-30T05:29:58.032Z,5
2017-03-30T05:30:38.574Z,5
2017-03-30T05:31:19.044Z,5
2017-03-30T05:31:59.502Z,5
2017-03-30T05:32:39.982Z,5
2017-03-30T05:33:20.469Z,5
2017-03-30T05:34:00.949Z,5
2017-03-30T05:34:41.425Z,5
2017-03-30T05:35:21.917Z,5
2017-03-30T05:36:02.390Z,5
2017-03-30T05:36:42.878Z,10
2017-03-30T05:37:23.358Z,10
2017-03-30T05:38:03.838Z,10
2017-03-30T05:38:44.308Z,10
2017-03-30T05:39:24.784Z,10
2017-03-30T05:40:05.284Z,10
2017-03-30T05:40:45.774Z,15
2017-03-30T05:41:26.247Z,15
2017-03-30T05:42:06.717Z,20
2017-03-30T05:42:47.194Z,20
2017-03-30T05:43:27.725Z,20
2017-03-30T05:44:08.238Z,20
2017-03-30T05:44:48.712Z,20
2017-03-30T05:45:29.238Z,20
2017-03-30T05:46:09.663Z,20
2017-03-30T05:46:50.153Z,15
2017-03-30T05:47:30.632Z,20
2017-03-30T05:48:11.143Z,20
2017-03-30T05:48:51.623Z,20
2017-03-30T05:49:32.098Z,15
2017-03-30T05:50:12.566Z,15
2017-03-30T05:50:53.044Z,20
2017-03-30T05:51:33.501Z,15
2017-03-30T05:52:14.716Z,15
2017-03-30T05:52:55.226Z,20
2017-03-30T05:53:35.734Z,15
2017-03-30T05:54:16.229Z,20
2017-03-30T05:54:56.778Z,25
2017-03-30T05:55:37.254Z,25
2017-03-30T05:56:17.743Z,30
2017-03-30T05:56:58.273Z,40
2017-03-30T05:57:38.781Z,30
2017-03-30T05:58:19.262Z,25
2017-03-30T05:58:59.752Z,25
2017-03-30T05:59:40.254Z,25
2017-03-30T06:00:20.738Z,25
2017-03-30T06:01:01.208Z,30
2017-03-30T06:01:41.720Z,30
2017-03-30T06:02:22.219Z,30
2017-03-30T06:04:36.803Z,25
2017-03-30T06:05:16.926Z,25
2017-03-30T06:05:57.436Z,20
2017-03-30T06:06:37.882Z,20
2017-03-30T06:07:18.378Z,20
2017-03-30T06:07:58.857Z,20
2017-03-30T06:08:39.348Z,20
2017-03-30T06:09:19.895Z,20
2017-03-30T06:10:00.360Z,20
2017-03-30T06:10:40.806Z,20
2017-03-30T06:11:21.288Z,15
2017-03-30T06:12:01.738Z,10
2017-03-30T06:12:42.278Z,10
2017-03-30T06:13:22.773Z,10
2017-03-30T06:14:04.146Z,15
2017-03-30T06:14:45.153Z,10
2017-03-30T06:15:26.324Z,10
2017-03-30T06:16:07.746Z,15
2017-03-30T06:16:48.240Z,15
2017-03-30T06:17:28.732Z,15
2017-03-30T06:18:09.207Z,15
2017-03-30T06:18:49.691Z,15
2017-03-30T06:19:30.190Z,15
2017-03-30T06:20:10.653Z,15
2017-03-30T06:20:51.142Z,15
2017-03-30T06:21:31.673Z,20
2017-03-30T06:22:12.146Z,20
2017-03-30T06:22:52.633Z,25
2017-03-30T06:23:33.103Z,25
2017-03-30T06:24:13.599Z,25
2017-03-30T06:24:54.117Z,25
2017-03-30T06:25:34.632Z,30
2017-03-30T06:26:15.148Z,35
2017-03-30T06:26:55.635Z,30
2017-03-30T06:27:36.075Z,35
2017-03-30T06:28:16.609Z,30
2017-03-30T06:28:57.051Z,35
2017-03-30T06:29:37.561Z,35
2017-03-30T06:30:18.826Z,35
2017-03-30T06:30:59.345Z,30
2017-03-30T06:31:39.836Z,30
2017-03-30T06:32:20.327Z,30
2017-03-30T06:33:00.792Z,25
2017-03-30T06:33:41.257Z,30
2017-03-30T06:34:21.768Z,30
2017-03-30T06:35:02.266Z,25
2017-03-30T06:35:42.721Z,25
2017-03-30T06:36:23.212Z,25
2017-03-30T06:37:03.669Z,25
2017-03-30T06:37:44.174Z,20
2017-03-30T06:38:24.666Z,20
2017-03-30T06:39:05.195Z,20
2017-03-30T06:39:45.715Z,25
2017-03-30T06:40:26.193Z,25
2017-03-30T06:41:06.672Z,25
2017-03-30T06:41:47.154Z,25
2017-03-30T06:42:27.642Z,25
2017-03-30T06:43:08.146Z,25
2017-03-30T06:43:48.649Z,30
2017-03-30T06:44:29.148Z,25
2017-03-30T06:45:09.615Z,30
2017-03-30T06:45:50.161Z,30
2017-03-30T06:46:30.631Z,40
2017-03-30T06:47:11.159Z,55
2017-03-30T06:47:59.338Z,60
2017-03-30T06:48:39.989Z,70
2017-03-30T06:49:20.467Z,70
2017-03-30T06:50:00.958Z,55
2017-03-30T06:50:41.474Z,60
2017-03-30T06:51:21.956Z,55
2017-03-30T06:52:02.460Z,65
2017-03-30T06:52:42.926Z,80
2017-03-30T06:53:23.403Z,85
2017-03-30T06:54:03.924Z,90
2017-03-30T06:54:45.669Z,85
2017-03-30T06:55:26.086Z,90
2017-03-30T06:56:06.612Z,75
2017-03-30T06:56:47.093Z,75
2017-03-30T06:57:27.569Z,70
2017-03-30T06:58:08.092Z,55
2017-03-30T06:58:48.597Z,45
2017-03-30T06:59:29.091Z,35
2017-03-30T07:00:10.575Z,40
2017-03-30T07:00:51.083Z,45
2017-03-30T07:01:31.555Z,55
2017-03-30T07:02:12.056Z,65
2017-03-30T07:02:52.535Z,65
2017-03-30T07:03:33.072Z,65
2017-03-30T07:04:13.519Z,65
2017-03-30T07:04:54.267Z,65
2017-03-30T07:05:36.608Z,75
2017-03-30T07:06:17.345Z,75
2017-03-30T07:06:57.989Z,80
2017-03-30T07:07:38.488Z,80
2017-03-30T07:08:18.997Z,85
2017-03-30T07:09:02.397Z,85
2017-03-30T07:09:43.542Z,75
2017-03-30T07:10:24.075Z,70
2017-03-30T07:11:09.447Z,70
2017-03-30T07:11:52.855Z,75
2017-03-30T07:12:36.840Z,70
2017-03-30T07:13:20.074Z,65
2017-03-30T07:14:02.837Z,65
2017-03-30T07:14:43.344Z,70
2017-03-30T07:15:24.796Z,75
2017-03-30T07:16:05.298Z,70
2017-03-30T07:16:46.709Z,80
2017-03-30T07:17:27.213Z,85
2017-03-30T07:18:07.714Z,95
2017-03-30T07:18:48.454Z,95
2017-03-30T07:19:28.903Z,90
2017-03-30T07:20:10.813Z,80
2017-03-30T07:20:50.591Z,80
2017-03-30T07:21:33.906Z,75
2017-03-30T07:22:14.438Z,75
2017-03-30T07:22:54.973Z,80
2017-03-30T07:23:35.493Z,90
2017-03-30T07:24:16.010Z,105
2017-03-30T07:24:56.485Z,110
2017-03-30T07:25:36.985Z,105
2017-03-30T07:26:17.548Z,115
2017-03-30T07:26:58.287Z,125
2017-03-30T07:27:40.027Z,130
2017-03-30T07:28:20.542Z,115
2017-03-30T07:29:01.002Z,115
2017-03-30T07:29:41.520Z,120
2017-03-30T07:30:22.008Z,120
2017-03-30T07:31:02.738Z,130
2017-03-30T07:31:43.240Z,130
2017-03-30T07:32:23.736Z,130
2017-03-30T07:33:04.678Z,130
2017-03-30T07:33:45.133Z,130
2017-03-30T07:34:25.644Z,130
2017-03-30T07:37:00.136Z,90
2017-03-30T07:37:40.467Z,105
2017-03-30T07:38:20.958Z,110
2017-03-30T07:39:01.926Z,105
2017-03-30T07:39:43.495Z,105
2017-03-30T07:40:23.952Z,100
2017-03-30T07:41:04.432Z,95
2017-03-30T07:41:44.960Z,90
2017-03-30T07:42:25.464Z,95
2017-03-30T07:43:05.925Z,95
2017-03-30T07:43:46.504Z,90
2017-03-30T07:44:27.046Z,85
2017-03-30T07:45:07.896Z,85
2017-03-30T07:45:48.373Z,90
2017-03-30T07:46:29.499Z,95
2017-03-30T07:47:09.859Z,90
2017-03-30T07:47:50.345Z,80
2017-03-30T07:48:30.831Z,75
2017-03-30T07:49:11.386Z,75
2017-03-30T07:49:51.884Z,75
2017-03-30T07:50:32.390Z,80
2017-03-30T07:51:12.865Z,90
2017-03-30T07:51:53.418Z,95
2017-03-30T07:52:33.927Z,90
2017-03-30T07:53:15.142Z,80
2017-03-30T07:53:55.619Z,85
2017-03-30T07:54:36.104Z,85
2017-03-30T07:55:16.556Z,95
2017-03-30T07:55:57.088Z,120
2017-03-30T07:56:37.619Z,130
2017-03-30T07:57:18.078Z,135
2017-03-30T07:57:58.567Z,140
2017-03-30T07:58:39.062Z,130
2017-03-30T07:59:19.509Z,135
2017-03-30T08:00:00.046Z,145
2017-03-30T08:00:40.552Z,155
2017-03-30T08:01:21.017Z,150
2017-03-30T08:02:01.479Z,145
2017-03-30T08:02:41.963Z,140
2017-03-30T08:03:22.480Z,120
2017-03-30T08:04:02.955Z,100
2017-03-30T08:04:43.430Z,90
2017-03-30T08:05:23.910Z,90
2017-03-30T08:06:04.375Z,90
2017-03-30T08:06:44.866Z,100
2017-03-30T08:07:25.476Z,115
2017-03-30T08:08:05.948Z,130
2017-03-30T08:08:46.443Z,135
2017-03-30T08:09:26.965Z,150
2017-03-30T08:10:07.468Z,145
2017-03-30T08:10:47.926Z,150
2017-03-30T08:11:28.429Z,150
2017-03-30T08:12:09.079Z,170
2017-03-30T08:12:49.610Z,190
2017-03-30T08:13:30.120Z,195
2017-03-30T08:14:10.660Z,195
2017-03-30T08:14:51.174Z,200
2017-03-30T08:15:31.664Z,190
2017-03-30T08:16:12.174Z,170
2017-03-30T08:16:52.642Z,165
2017-03-30T08:17:33.125Z,175
2017-03-30T08:18:13.759Z,185
2017-03-30T08:18:54.277Z,185
2017-03-30T08:19:34.775Z,185
2017-03-30T08:20:15.881Z,195
2017-03-30T08:20:56.346Z,200
2017-03-30T08:21:36.845Z,215
2017-03-30T08:22:17.306Z,225
2017-03-30T08:24:31.100Z,250
2017-03-30T08:25:11.661Z,245
2017-03-30T08:25:52.161Z,230
2017-03-30T08:26:32.653Z,230
2017-03-30T08:27:13.127Z,240
2017-03-30T08:27:53.629Z,230
2017-03-30T08:28:34.185Z,205
2017-03-30T08:29:14.728Z,185
2017-03-30T08:29:55.266Z,175
2017-03-30T08:30:35.819Z,170
2017-03-30T08:31:16.308Z,160
2017-03-30T08:31:56.778Z,145
2017-03-30T08:32:37.225Z,135
2017-03-30T08:33:17.735Z,140
2017-03-30T08:33:58.190Z,150
2017-03-30T08:34:38.684Z,160
2017-03-30T08:35:19.223Z,170
2017-03-30T08:35:59.753Z,185
2017-03-30T08:36:40.227Z,200
2017-03-30T08:37:20.704Z,210
2017-03-30T08:38:01.192Z,220
2017-03-30T08:38:41.684Z,210
2017-03-30T08:39:22.161Z,195
2017-03-30T08:40:02.690Z,190
2017-03-30T08:40:43.184Z,190
2017-03-30T08:41:23.818Z,195
2017-03-30T08:42:04.274Z,210
2017-03-30T08:42:44.804Z,220
2017-03-30T08:43:25.266Z,220
2017-03-30T08:44:05.813Z,215
2017-03-30T08:44:46.301Z,210
2017-03-30T08:45:26.911Z,205
2017-03-30T08:46:07.424Z,190
2017-03-30T08:46:47.890Z,180
2017-03-30T08:47:28.386Z,180
2017-03-30T08:48:08.832Z,185
2017-03-30T08:48:49.373Z,195
2017-03-30T08:49:29.875Z,195
2017-03-30T08:50:10.376Z,195
2017-03-30T08:50:50.864Z,190
2017-03-30T08:51:31.340Z,200
2017-03-30T08:52:11.851Z,210
2017-03-30T08:52:52.359Z,225
2017-03-30T08:53:32.945Z,230
2017-03-30T08:54:13.427Z,225
2017-03-30T08:54:53.935Z,225
2017-03-30T08:55:34.429Z,230
2017-03-30T08:56:14.962Z,245
2017-03-30T08:56:55.426Z,260
2017-03-30T08:57:36.153Z,265
2017-03-30T08:58:16.684Z,275
2017-03-30T08:58:57.151Z,295
2017-03-30T08:59:37.634Z,300
2017-03-30T09:00:18.154Z,305
2017-03-30T09:00:58.652Z,325
2017-03-30T09:01:39.196Z,330
2017-03-30T09:02:19.788Z,320
2017-03-30T09:03:00.208Z,315
2017-03-30T09:03:40.686Z,305
2017-03-30T09:04:21.156Z,315
2017-03-30T09:05:01.654Z,305
2017-03-30T09:05:42.200Z,290
2017-03-30T09:06:22.639Z,280
2017-03-30T09:07:03.265Z,260
2017-03-30T09:07:43.696Z,255
2017-03-30T09:08:24.194Z,245
2017-03-30T09:09:04.645Z,250
2017-03-30T09:09:45.166Z,260
2017-03-30T09:10:25.800Z,260
2017-03-30T09:11:06.271Z,265
2017-03-30T09:11:46.851Z,275
2017-03-30T09:12:29.474Z,280
2017-03-30T09:13:10.005Z,295
2017-03-30T09:13:50.565Z,300
2017-03-30T09:14:31.059Z,330
2017-03-30T09:15:11.554Z,350
2017-03-30T09:15:52.059Z,335
2017-03-30T09:16:32.598Z,310
2017-03-30T09:17:13.194Z,285
2017-03-30T09:17:53.652Z,260
2017-03-30T09:18:34.159Z,235
2017-03-30T09:19:14.662Z,225
2017-03-30T09:19:55.105Z,220
2017-03-30T09:20:35.626Z,220
2017-03-30T09:21:16.082Z,230
2017-03-30T09:21:56.553Z,225
2017-03-30T09:22:39.818Z,220
2017-03-30T09:23:20.458Z,230
2017-03-30T09:24:04.387Z,235
2017-03-30T09:24:44.869Z,260
2017-03-30T09:25:25.475Z,295
2017-03-30T09:26:06.487Z,320
2017-03-30T09:26:47.133Z,380
2017-03-30T09:27:28.615Z,420
2017-03-30T09:28:09.438Z,460
2017-03-30T09:28:49.919Z,440
2017-03-30T09:29:30.421Z,410
2017-03-30T09:30:10.893Z,380
2017-03-30T09:30:51.370Z,355
2017-03-30T09:31:31.858Z,330
2017-03-30T09:32:12.395Z,295
2017-03-30T09:32:52.881Z,270
2017-03-30T09:33:33.361Z,260
2017-03-30T09:34:15.403Z,260
2017-03-30T09:34:55.922Z,265
2017-03-30T09:35:36.497Z,265
2017-03-30T09:36:16.898Z,255
2017-03-30T09:36:57.414Z,255
2017-03-30T09:37:37.890Z,265
2017-03-30T09:38:18.375Z,265
2017-03-30T09:38:58.844Z,265
2017-03-30T09:39:39.337Z,265
2017-03-30T09:40:19.913Z,265
2017-03-30T09:41:00.383Z,255
2017-03-30T09:41:40.895Z,265
2017-03-30T09:42:21.383Z,275
2017-03-30T09:43:01.870Z,280
2017-03-30T09:43:42.357Z,270
2017-03-30T09:44:22.841Z,265
2017-03-30T09:45:03.345Z,280
2017-03-30T09:45:43.842Z,290
2017-03-30T09:46:24.352Z,290
2017-03-30T09:49:08.470Z,240
2017-03-30T09:55:28.914Z,325
2017-03-30T09:56:09.402Z,325
2017-03-30T09:56:49.913Z,325
2017-03-30T09:57:30.421Z,345
2017-03-30T09:58:10.960Z,365
2017-03-30T09:58:51.763Z,390
2017-03-30T09:59:32.478Z,405
2017-03-30T10:00:13.541Z,390
2017-03-30T10:00:54.155Z,355
2017-03-30T10:01:35.099Z,340
2017-03-30T10:02:16.156Z,340
2017-03-30T10:02:57.550Z,335
2017-03-30T10:03:38.431Z,310
2017-03-30T10:04:19.361Z,280